WZZ374 EDDK-LQTZ
Flight info
| Callsign | WZZ374 |
|---|---|
| Flight time | N/A |
| Altitude | 35000 |
| Route | KUMIK1R KUMIK L603 TESGA DCT ESATI DCT DETEV DCT DINKU DCT BESNI DCT LATLO DCT OBEDI DCT PODET DCT MOSAV/N0364F190 N131 DER |
| Aircraft | A21N/M-SDE3FGHIRWY/LB1 |
Departure
| Time | N/A |
|---|---|
| Airport | Cologne Bonn Airport (EDDK) |
Arrival
| Time | 2026-04-25 18:50 |
|---|---|
| Airport | Tuzla International Airport (LQTZ) |
| Time | Latitude | Longitude | Altitude | Speed | Heading |
|---|---|---|---|---|---|
| 2026-04-25 18:04 | 47.54773 | 13.00762 | 35148 ft | 478 kts | 136° |
| 2026-04-25 18:04 | 47.52735 | 13.03752 | 35153 ft | 478 kts | 136° |
| 2026-04-25 18:05 | 47.48049 | 13.10653 | 35152 ft | 477 kts | 136° |
| 2026-04-25 18:05 | 47.43345 | 13.17545 | 35134 ft | 477 kts | 136° |
| 2026-04-25 18:06 | 47.38654 | 13.24409 | 35155 ft | 477 kts | 136° |
| 2026-04-25 18:06 | 47.34012 | 13.31353 | 35135 ft | 477 kts | 134° |
| 2026-04-25 18:07 | 47.29834 | 13.38959 | 35156 ft | 479 kts | 128° |
| 2026-04-25 18:07 | 47.25996 | 13.46875 | 35153 ft | 478 kts | 127° |
| 2026-04-25 18:08 | 47.22137 | 13.54852 | 35149 ft | 478 kts | 127° |
| 2026-04-25 18:08 | 47.18272 | 13.62791 | 35134 ft | 479 kts | 127° |
| 2026-04-25 18:09 | 47.14425 | 13.70665 | 35141 ft | 478 kts | 128° |
| 2026-04-25 18:09 | 47.10533 | 13.78618 | 35174 ft | 478 kts | 129° |
| 2026-04-25 18:10 | 47.06669 | 13.86462 | 35140 ft | 479 kts | 128° |
| 2026-04-25 18:10 | 47.02766 | 13.94375 | 35152 ft | 480 kts | 128° |
| 2026-04-25 18:11 | 46.98882 | 14.02236 | 35148 ft | 480 kts | 129° |
| 2026-04-25 18:11 | 46.94981 | 14.10106 | 35131 ft | 479 kts | 128° |
| 2026-04-25 18:12 | 46.91069 | 14.17976 | 35129 ft | 480 kts | 129° |
| 2026-04-25 18:12 | 46.87138 | 14.25859 | 35096 ft | 480 kts | 129° |
| 2026-04-25 18:13 | 46.83196 | 14.33737 | 35076 ft | 480 kts | 129° |
| 2026-04-25 18:13 | 46.79278 | 14.41550 | 34996 ft | 479 kts | 129° |
| 2026-04-25 18:14 | 46.73395 | 14.53239 | 34975 ft | 480 kts | 129° |
| 2026-04-25 18:14 | 46.69454 | 14.61042 | 34996 ft | 480 kts | 128° |
| 2026-04-25 18:15 | 46.65479 | 14.68895 | 35074 ft | 481 kts | 129° |
| 2026-04-25 18:15 | 46.61523 | 14.76688 | 35086 ft | 480 kts | 129° |
| 2026-04-25 18:16 | 46.57567 | 14.84452 | 35074 ft | 481 kts | 129° |
| 2026-04-25 18:17 | 46.51611 | 14.96103 | 35068 ft | 481 kts | 129° |
| 2026-04-25 18:17 | 46.47622 | 15.03883 | 35055 ft | 481 kts | 129° |
| 2026-04-25 18:18 | 46.43664 | 15.11583 | 35048 ft | 480 kts | 129° |
| 2026-04-25 18:18 | 46.39672 | 15.19324 | 35043 ft | 480 kts | 129° |
| 2026-04-25 18:19 | 46.35692 | 15.27026 | 35041 ft | 481 kts | 129° |
| 2026-04-25 18:19 | 46.31689 | 15.34746 | 35045 ft | 481 kts | 129° |
| 2026-04-25 18:20 | 46.27667 | 15.42484 | 35004 ft | 482 kts | 129° |
| 2026-04-25 18:20 | 46.23651 | 15.50192 | 35007 ft | 481 kts | 129° |
| 2026-04-25 18:21 | 46.19641 | 15.57864 | 34988 ft | 483 kts | 129° |
| 2026-04-25 18:21 | 46.15717 | 15.65697 | 34985 ft | 484 kts | 127° |
| 2026-04-25 18:22 | 46.11999 | 15.73769 | 34955 ft | 483 kts | 126° |
| 2026-04-25 18:22 | 46.08292 | 15.81828 | 34961 ft | 483 kts | 126° |
| 2026-04-25 18:23 | 46.04591 | 15.89840 | 34976 ft | 483 kts | 126° |
| 2026-04-25 18:23 | 46.00892 | 15.97821 | 34967 ft | 482 kts | 126° |
| 2026-04-25 18:24 | 45.97167 | 16.05832 | 34977 ft | 482 kts | 126° |
| 2026-04-25 18:24 | 45.93459 | 16.13790 | 34980 ft | 482 kts | 126° |
| 2026-04-25 18:25 | 45.89731 | 16.21767 | 34982 ft | 481 kts | 126° |
| 2026-04-25 18:25 | 45.85992 | 16.29740 | 34980 ft | 483 kts | 126° |
| 2026-04-25 18:26 | 45.82265 | 16.37670 | 34979 ft | 484 kts | 126° |
| 2026-04-25 18:26 | 45.78507 | 16.45645 | 34979 ft | 483 kts | 126° |
| 2026-04-25 18:27 | 45.74754 | 16.53584 | 34981 ft | 484 kts | 126° |
| 2026-04-25 18:27 | 45.70978 | 16.61548 | 34986 ft | 484 kts | 126° |
| 2026-04-25 18:28 | 45.67215 | 16.69466 | 34993 ft | 484 kts | 127° |
| 2026-04-25 18:28 | 45.63423 | 16.77428 | 34995 ft | 483 kts | 127° |
| 2026-04-25 18:29 | 45.59672 | 16.85282 | 34236 ft | 482 kts | 127° |
| 2026-04-25 18:29 | 45.57772 | 16.89236 | 33197 ft | 490 kts | 126° |
| 2026-04-25 18:30 | 45.51675 | 17.00924 | 30895 ft | 488 kts | 130° |
| 2026-04-25 18:30 | 45.49612 | 17.04691 | 30422 ft | 482 kts | 130° |
| 2026-04-25 18:30 | 45.47571 | 17.08414 | 29871 ft | 477 kts | 130° |
| 2026-04-25 18:30 | 45.45533 | 17.12128 | 29310 ft | 472 kts | 130° |
| 2026-04-25 18:31 | 45.43528 | 17.15781 | 28764 ft | 468 kts | 130° |
| 2026-04-25 18:31 | 45.41535 | 17.19411 | 28207 ft | 464 kts | 130° |
| 2026-04-25 18:31 | 45.39571 | 17.22983 | 27662 ft | 460 kts | 129° |
| 2026-04-25 18:31 | 45.37631 | 17.26509 | 27111 ft | 456 kts | 129° |
| 2026-04-25 18:32 | 45.35674 | 17.30061 | 26566 ft | 452 kts | 129° |
| 2026-04-25 18:32 | 45.33742 | 17.33564 | 26035 ft | 448 kts | 129° |
| 2026-04-25 18:32 | 45.31839 | 17.37013 | 25511 ft | 444 kts | 129° |
| 2026-04-25 18:32 | 45.29946 | 17.40437 | 24983 ft | 441 kts | 129° |
| 2026-04-25 18:33 | 45.28067 | 17.43831 | 24454 ft | 437 kts | 129° |
| 2026-04-25 18:33 | 45.26213 | 17.47177 | 23928 ft | 433 kts | 129° |
| 2026-04-25 18:33 | 45.24378 | 17.50484 | 23419 ft | 430 kts | 129° |
| 2026-04-25 18:33 | 45.22536 | 17.53802 | 22906 ft | 426 kts | 129° |
| 2026-04-25 18:34 | 45.20715 | 17.57078 | 22388 ft | 423 kts | 129° |
| 2026-04-25 18:34 | 45.18898 | 17.60340 | 21872 ft | 420 kts | 129° |
| 2026-04-25 18:34 | 45.17106 | 17.63558 | 21371 ft | 417 kts | 129° |
| 2026-04-25 18:34 | 45.15322 | 17.66755 | 20855 ft | 414 kts | 129° |
| 2026-04-25 18:35 | 45.13538 | 17.69949 | 20366 ft | 410 kts | 129° |
| 2026-04-25 18:35 | 45.11789 | 17.73080 | 19871 ft | 407 kts | 129° |
| 2026-04-25 18:35 | 45.10040 | 17.76206 | 19381 ft | 404 kts | 129° |
| 2026-04-25 18:35 | 45.08304 | 17.79306 | 18880 ft | 401 kts | 129° |
| 2026-04-25 18:36 | 45.06604 | 17.82333 | 18407 ft | 398 kts | 129° |
| 2026-04-25 18:36 | 45.04874 | 17.85414 | 17909 ft | 396 kts | 129° |
| 2026-04-25 18:36 | 45.03178 | 17.88431 | 17412 ft | 393 kts | 129° |
| 2026-04-25 18:36 | 45.01493 | 17.91429 | 16965 ft | 389 kts | 129° |
| 2026-04-25 18:37 | 44.99825 | 17.94377 | 16507 ft | 386 kts | 130° |
| 2026-04-25 18:37 | 44.97812 | 17.96870 | 15992 ft | 383 kts | 150° |
| 2026-04-25 18:37 | 44.95398 | 17.98264 | 15549 ft | 377 kts | 165° |
| 2026-04-25 18:37 | 44.92860 | 17.99241 | 15023 ft | 375 kts | 166° |
| 2026-04-25 18:38 | 44.90348 | 18.00173 | 14541 ft | 373 kts | 166° |
| 2026-04-25 18:38 | 44.87867 | 18.01105 | 14064 ft | 369 kts | 166° |
| 2026-04-25 18:38 | 44.85407 | 18.02043 | 13447 ft | 365 kts | 166° |
| 2026-04-25 18:38 | 44.82969 | 18.02981 | 12744 ft | 362 kts | 165° |
| 2026-04-25 18:39 | 44.80593 | 18.03902 | 12078 ft | 358 kts | 165° |
| 2026-04-25 18:39 | 44.78204 | 18.04832 | 11445 ft | 354 kts | 165° |
| 2026-04-25 18:39 | 44.75865 | 18.05744 | 11062 ft | 341 kts | 165° |
| 2026-04-25 18:39 | 44.73648 | 18.06609 | 10978 ft | 320 kts | 165° |
| 2026-04-25 18:40 | 44.71569 | 18.07421 | 10960 ft | 305 kts | 165° |
| 2026-04-25 18:40 | 44.69533 | 18.08213 | 10586 ft | 301 kts | 165° |
| 2026-04-25 18:40 | 44.67528 | 18.08992 | 10007 ft | 302 kts | 165° |
| 2026-04-25 18:40 | 44.65518 | 18.09772 | 9482 ft | 300 kts | 164° |
| 2026-04-25 18:41 | 44.63538 | 18.10542 | 8996 ft | 297 kts | 164° |
| 2026-04-25 18:41 | 44.61553 | 18.11314 | 8494 ft | 294 kts | 165° |
| 2026-04-25 18:41 | 44.59580 | 18.12079 | 8002 ft | 292 kts | 165° |
| 2026-04-25 18:41 | 44.57652 | 18.12826 | 7592 ft | 288 kts | 165° |
| 2026-04-25 18:42 | 44.55713 | 18.13577 | 7217 ft | 287 kts | 165° |
| 2026-04-25 18:42 | 44.54462 | 18.14062 | 6985 ft | 285 kts | 165° |
| 2026-04-25 18:42 | 44.51929 | 18.15171 | 6492 ft | 284 kts | 152° |
| 2026-04-25 18:42 | 44.50452 | 18.16911 | 6129 ft | 281 kts | 125° |
| 2026-04-25 18:43 | 44.49691 | 18.19383 | 5788 ft | 277 kts | 98° |
| 2026-04-25 18:43 | 44.49551 | 18.22051 | 5477 ft | 272 kts | 90° |
| 2026-04-25 18:43 | 44.49523 | 18.24674 | 5243 ft | 265 kts | 90° |
| 2026-04-25 18:43 | 44.49445 | 18.27151 | 5216 ft | 251 kts | 92° |
| 2026-04-25 18:44 | 44.49315 | 18.29581 | 4952 ft | 249 kts | 94° |
| 2026-04-25 18:44 | 44.49152 | 18.31970 | 4616 ft | 249 kts | 95° |
| 2026-04-25 18:44 | 44.48966 | 18.34368 | 4302 ft | 247 kts | 95° |
| 2026-04-25 18:44 | 44.48770 | 18.36754 | 4056 ft | 243 kts | 95° |
| 2026-04-25 18:45 | 44.48582 | 18.39006 | 4018 ft | 229 kts | 96° |
| 2026-04-25 18:45 | 44.48396 | 18.41210 | 4019 ft | 225 kts | 96° |
| 2026-04-25 18:45 | 44.48216 | 18.43374 | 4016 ft | 225 kts | 96° |
| 2026-04-25 18:45 | 44.48035 | 18.45557 | 4011 ft | 225 kts | 96° |
| 2026-04-25 18:46 | 44.47857 | 18.47707 | 4008 ft | 225 kts | 95° |
| 2026-04-25 18:46 | 44.47682 | 18.49853 | 4099 ft | 214 kts | 95° |
| 2026-04-25 18:46 | 44.47520 | 18.51854 | 3957 ft | 206 kts | 95° |
| 2026-04-25 18:46 | 44.47357 | 18.53856 | 3582 ft | 206 kts | 95° |
| 2026-04-25 18:47 | 44.47197 | 18.55835 | 3151 ft | 206 kts | 95° |
| 2026-04-25 18:47 | 44.47038 | 18.57795 | 2700 ft | 200 kts | 95° |
| 2026-04-25 18:47 | 44.46886 | 18.59688 | 2335 ft | 192 kts | 96° |
| 2026-04-25 18:47 | 44.46742 | 18.61487 | 2065 ft | 180 kts | 96° |
| 2026-04-25 18:48 | 44.46610 | 18.63138 | 1883 ft | 164 kts | 96° |
| 2026-04-25 18:48 | 44.46486 | 18.64653 | 1652 ft | 148 kts | 96° |
| 2026-04-25 18:48 | 44.46381 | 18.66028 | 1445 ft | 141 kts | 97° |
| 2026-04-25 18:48 | 44.46265 | 18.67401 | 1283 ft | 140 kts | 97° |
| 2026-04-25 18:49 | 44.46162 | 18.68744 | 1102 ft | 140 kts | 96° |
| 2026-04-25 18:49 | 44.46052 | 18.70098 | 914 ft | 140 kts | 97° |
| 2026-04-25 18:49 | 44.45945 | 18.71443 | 773 ft | 132 kts | 96° |
| 2026-04-25 18:49 | 44.45867 | 18.72480 | 780 ft | 82 kts | 96° |
| 2026-04-25 18:50 | 44.45820 | 18.73075 | 786 ft | 48 kts | 97° |
| 2026-04-25 18:50 | 44.45806 | 18.73349 | 785 ft | 13 kts | 73° |
| 2026-04-25 18:50 | 44.45816 | 18.73424 | 786 ft | 4 kts | 125° |
| 2026-04-25 18:50 | 44.45797 | 18.73397 | 785 ft | 6 kts | 267° |
| 2026-04-25 18:51 | 44.45802 | 18.73299 | 785 ft | 14 kts | 277° |
| 2026-04-25 18:51 | 44.45811 | 18.73189 | 785 ft | 19 kts | 276° |
| 2026-04-25 18:51 | 44.45834 | 18.72893 | 786 ft | 26 kts | 277° |
| 2026-04-25 18:51 | 44.45857 | 18.72610 | 783 ft | 32 kts | 276° |
| 2026-04-25 18:52 | 44.45883 | 18.72272 | 776 ft | 36 kts | 276° |
| 2026-04-25 18:52 | 44.45910 | 18.71932 | 775 ft | 34 kts | 276° |
| 2026-04-25 18:52 | 44.45935 | 18.71616 | 773 ft | 31 kts | 276° |
| 2026-04-25 18:52 | 44.45958 | 18.71320 | 771 ft | 29 kts | 277° |
| 2026-04-25 18:53 | 44.45978 | 18.71068 | 764 ft | 19 kts | 278° |
| 2026-04-25 18:53 | 44.46034 | 18.70931 | 763 ft | 16 kts | 337° |
| 2026-04-25 18:53 | 44.46144 | 18.70937 | 765 ft | 15 kts | 10° |
| 2026-04-25 18:53 | 44.46234 | 18.70962 | 767 ft | 11 kts | 28° |
| 2026-04-25 18:54 | 44.46284 | 18.71068 | 772 ft | 3 kts | 27° |
| 2026-04-25 18:54 | 44.46308 | 18.71079 | 773 ft | 3 kts | 353° |
| 2026-04-25 18:54 | 44.46321 | 18.71068 | 773 ft | 0 kts | 297° |